createdAt,value
2024-02-12T00:00:48.684Z,985.487
2024-02-12T00:06:10.947Z,985.567
2024-02-12T00:10:46.230Z,985.349
2024-02-12T00:15:47.126Z,985.323
2024-02-12T00:20:46.403Z,985.325
2024-02-12T00:25:54.138Z,985.394
2024-02-12T00:30:54.596Z,985.391
2024-02-12T00:35:53.515Z,985.435
2024-02-12T00:40:53.851Z,985.284
2024-02-12T00:45:51.863Z,985.55
2024-02-12T00:50:51.584Z,985.377
2024-02-12T00:55:53.836Z,985.251
2024-02-12T01:00:55.349Z,985.451
2024-02-12T01:05:54.368Z,985.4
2024-02-12T01:10:56.716Z,985.465
2024-02-12T01:15:53.709Z,985.571
2024-02-12T01:20:54.256Z,985.517
2024-02-12T01:25:54.257Z,985.586
2024-02-12T01:30:55.015Z,985.552
2024-02-12T01:35:45.377Z,985.664
2024-02-12T01:40:47.150Z,985.732
2024-02-12T01:45:45.318Z,985.597
2024-02-12T01:50:48.800Z,985.536
2024-02-12T01:55:45.892Z,985.582
2024-02-12T02:00:45.999Z,985.64
2024-02-12T02:05:45.158Z,985.6
2024-02-12T02:10:50.911Z,985.544
2024-02-12T02:15:46.184Z,985.688
2024-02-12T02:20:47.259Z,985.627
2024-02-12T02:25:52.277Z,985.579
2024-02-12T02:31:33.157Z,985.682
2024-02-12T02:35:47.903Z,985.736
2024-02-12T02:40:52.949Z,985.68
2024-02-12T02:45:46.875Z,985.453
2024-02-12T02:50:48.312Z,985.721
2024-02-12T02:55:46.014Z,985.807
2024-02-12T03:00:45.149Z,985.895
2024-02-12T03:05:46.176Z,985.782
2024-02-12T03:10:45.294Z,985.927
2024-02-12T03:15:47.656Z,985.948
2024-02-12T03:20:45.865Z,985.974
2024-02-12T03:25:48.180Z,986.125
2024-02-12T03:30:46.491Z,986.081
2024-02-12T03:35:47.504Z,986.2
2024-02-12T03:40:45.531Z,986.087
2024-02-12T03:45:46.895Z,986.071
2024-02-12T03:50:48.410Z,986.304
2024-02-12T03:55:46.649Z,986.192
2024-02-12T04:00:52.377Z,986.306
2024-02-12T04:05:52.713Z,986.433
2024-02-12T04:10:55.765Z,986.568
2024-02-12T04:15:54.707Z,986.471
2024-02-12T04:20:54.724Z,986.506
2024-02-12T04:25:55.027Z,986.42
2024-02-12T04:30:53.475Z,986.564
2024-02-12T04:35:53.492Z,986.374
2024-02-12T04:40:50.972Z,986.551
2024-02-12T04:45:52.072Z,986.496
2024-02-12T04:50:51.469Z,986.443
2024-02-12T04:55:53.183Z,986.548
2024-02-12T05:00:54.569Z,986.492
2024-02-12T05:05:52.111Z,986.404
2024-02-12T05:10:54.568Z,986.533
2024-02-12T05:15:53.683Z,986.658
2024-02-12T05:20:52.761Z,986.648
2024-02-12T05:25:55.127Z,986.738
2024-02-12T05:30:55.712Z,986.78
2024-02-12T05:35:55.744Z,986.75
2024-02-12T05:40:50.104Z,986.725
2024-02-12T05:45:45.245Z,986.826
2024-02-12T05:50:48.552Z,987.019
2024-02-12T05:55:50.425Z,987.044
2024-02-12T06:00:49.387Z,986.994
2024-02-12T06:05:52.763Z,986.935
2024-02-12T06:10:51.693Z,987.129
2024-02-12T06:15:48.529Z,987.193
2024-02-12T06:20:51.134Z,987.28
2024-02-12T06:25:49.812Z,987.329
2024-02-12T06:30:51.729Z,987.192
2024-02-12T06:35:53.751Z,987.351
2024-02-12T06:40:53.414Z,987.517
2024-02-12T06:45:51.694Z,987.363
2024-02-12T06:50:53.684Z,987.478
2024-02-12T06:55:51.065Z,987.521
2024-02-12T07:00:54.622Z,987.504
2024-02-12T07:05:51.742Z,987.627
2024-02-12T07:10:51.453Z,987.744
2024-02-12T07:15:53.604Z,987.816
2024-02-12T07:20:57.315Z,987.683
2024-02-12T07:25:53.268Z,987.764
2024-02-12T07:30:50.644Z,987.928
2024-02-12T07:35:59.970Z,987.988
2024-02-12T07:40:55.877Z,988.039
2024-02-12T07:45:57.719Z,988.023
2024-02-12T07:50:57.420Z,988.083
2024-02-12T07:55:53.159Z,988.129
2024-02-12T08:00:55.115Z,988.174
2024-02-12T08:05:58.579Z,988.181
2024-02-12T08:10:56.366Z,988.144
2024-02-12T08:16:00.916Z,988.314
2024-02-12T08:20:54.478Z,988.27
2024-02-12T08:25:54.338Z,988.415
2024-02-12T08:31:00.526Z,988.286
2024-02-12T08:35:59.530Z,988.384
2024-02-12T08:40:57.559Z,988.314
2024-02-12T08:45:54.440Z,988.532
2024-02-12T08:50:52.475Z,988.581
2024-02-12T08:55:50.702Z,988.614
2024-02-12T09:00:51.096Z,988.694
2024-02-12T09:05:52.131Z,988.811
2024-02-12T09:10:49.293Z,988.866
2024-02-12T09:15:50.518Z,988.95
2024-02-12T09:20:51.091Z,988.986
2024-02-12T09:25:49.935Z,989.01
2024-02-12T09:30:51.421Z,988.917
2024-02-12T09:35:51.530Z,988.752
2024-02-12T09:40:54.753Z,988.964
2024-02-12T09:45:50.770Z,988.9
2024-02-12T09:50:52.441Z,988.952
2024-02-12T09:55:53.333Z,988.983
2024-02-12T10:00:52.695Z,989.148
2024-02-12T10:05:53.747Z,988.983
2024-02-12T10:10:51.789Z,988.936
2024-02-12T10:15:53.167Z,988.917
2024-02-12T10:20:51.437Z,988.87
2024-02-12T10:25:53.429Z,988.939
2024-02-12T10:30:52.679Z,988.918
2024-02-12T10:35:54.877Z,988.678
2024-02-12T10:40:52.934Z,988.776
2024-02-12T10:45:55.419Z,988.852
2024-02-12T10:50:54.955Z,988.758
2024-02-12T10:55:51.140Z,988.77
2024-02-12T11:00:55.723Z,988.689
2024-02-12T11:05:54.388Z,988.61
2024-02-12T11:10:59.250Z,988.444
2024-02-12T11:15:58.427Z,988.639
2024-02-12T11:21:01.439Z,988.469
2024-02-12T11:25:58.356Z,988.357
2024-02-12T11:30:59.784Z,988.519
2024-02-12T11:35:58.940Z,988.661
2024-02-12T11:40:57.022Z,988.742
2024-02-12T11:45:57.763Z,988.989
2024-02-12T11:51:05.123Z,988.632
2024-02-12T11:55:58.286Z,988.677
2024-02-12T12:00:59.833Z,988.715
2024-02-12T12:05:58.815Z,988.51
2024-02-12T12:10:58.988Z,988.642
2024-02-12T12:15:57.701Z,988.631
2024-02-12T12:20:59.427Z,988.79
2024-02-12T12:25:58.273Z,988.768
2024-02-12T12:30:51.899Z,988.54
2024-02-12T12:35:53.628Z,988.683
2024-02-12T12:40:54.298Z,988.746
2024-02-12T12:45:53.641Z,988.696
2024-02-12T12:50:57.601Z,988.616
2024-02-12T12:55:51.997Z,988.723
2024-02-12T13:00:53.006Z,988.817
2024-02-12T13:05:53.783Z,988.61
2024-02-12T13:10:54.979Z,988.664
2024-02-12T13:15:50.050Z,988.661
2024-02-12T13:20:52.740Z,988.832
2024-02-12T13:25:53.216Z,988.713
2024-02-12T13:30:50.118Z,988.653
2024-02-12T13:35:51.418Z,988.927
2024-02-12T13:40:50.343Z,988.976
2024-02-12T13:45:50.053Z,988.891
2024-02-12T13:50:50.576Z,989.034
2024-02-12T13:55:50.930Z,989.039
2024-02-12T14:00:58.576Z,989.09
2024-02-12T14:05:50.529Z,989.123
2024-02-12T14:10:54.046Z,989.137
2024-02-12T14:16:01.131Z,989.198
2024-02-12T14:20:49.723Z,989.191
2024-02-12T14:25:52.175Z,989.209
2024-02-12T14:30:51.135Z,989.282
2024-02-12T14:35:51.901Z,989.276
2024-02-12T14:40:51.856Z,989.454
2024-02-12T14:45:57.104Z,989.507
2024-02-12T14:50:54.799Z,989.513
2024-02-12T14:55:57.670Z,989.441
2024-02-12T15:00:54.584Z,989.699
2024-02-12T15:05:57.297Z,989.75
2024-02-12T15:10:57.215Z,989.667
2024-02-12T15:15:57.895Z,989.63
2024-02-12T15:20:57.139Z,990.022
2024-02-12T15:25:55.287Z,989.855
2024-02-12T15:30:56.615Z,989.907
2024-02-12T15:35:55.912Z,989.979
2024-02-12T15:40:55.987Z,990.103
2024-02-12T15:46:15.286Z,989.974
2024-02-12T15:50:49.614Z,990.088
2024-02-12T15:55:48.795Z,990.172
2024-02-12T16:00:51.548Z,990.218
2024-02-12T16:05:54.521Z,990.286
2024-02-12T16:10:51.455Z,990.411
2024-02-12T16:15:49.845Z,990.645
2024-02-12T16:20:46.947Z,990.605
2024-02-12T16:25:48.611Z,990.598
2024-02-12T16:30:46.313Z,990.749
2024-02-12T16:35:49.206Z,990.858
2024-02-12T16:40:47.486Z,990.967
2024-02-12T16:45:48.926Z,991.001
2024-02-12T16:50:47.432Z,991.135
2024-02-12T16:55:50.662Z,991.209
2024-02-12T17:00:50.774Z,991.239
2024-02-12T17:05:49.380Z,991.153
2024-02-12T17:10:50.599Z,991.245
2024-02-12T17:15:47.927Z,991.337
2024-02-12T17:20:47.879Z,991.37
2024-02-12T17:25:48.903Z,991.408
2024-02-12T17:30:49.183Z,991.5
2024-02-12T17:35:48.206Z,991.512
2024-02-12T17:40:46.438Z,991.575
2024-02-12T17:45:47.366Z,991.688
2024-02-12T17:50:47.703Z,991.796
2024-02-12T17:55:48.628Z,991.922
2024-02-12T18:00:48.706Z,991.934
2024-02-12T18:05:47.738Z,992.135
2024-02-12T18:10:49.869Z,992.173
2024-02-12T18:15:53.435Z,992.151
2024-02-12T18:20:55.673Z,991.929
2024-02-12T18:25:54.629Z,992.061
2024-02-12T18:30:54.643Z,992.142
2024-02-12T18:35:54.840Z,992.135
2024-02-12T18:40:54.908Z,992.195
2024-02-12T18:45:51.519Z,992.254
2024-02-12T18:50:54.088Z,992.323
2024-02-12T18:55:53.912Z,992.347
2024-02-12T19:00:55.236Z,992.447
2024-02-12T19:05:55.095Z,992.587
2024-02-12T19:10:57.229Z,992.596
2024-02-12T19:15:49.502Z,992.71
2024-02-12T19:20:50.851Z,992.724
2024-02-12T19:25:47.503Z,992.841
2024-02-12T19:30:53.298Z,992.908
2024-02-12T19:35:56.316Z,992.956
2024-02-12T19:40:54.396Z,993.177
2024-02-12T19:45:49.097Z,993.08
2024-02-12T19:50:53.095Z,993.16
2024-02-12T19:55:54.195Z,993.102
2024-02-12T20:00:55.334Z,993.306
2024-02-12T20:05:47.738Z,993.4
2024-02-12T20:10:51.556Z,993.393
2024-02-12T20:15:53.153Z,993.459
2024-02-12T20:20:47.113Z,993.39
2024-02-12T20:25:48.714Z,993.39
2024-02-12T20:30:47.539Z,993.441
2024-02-12T20:35:50.937Z,993.624
2024-02-12T20:40:51.617Z,993.764
2024-02-12T20:45:50.719Z,993.838
2024-02-12T20:50:48.298Z,993.696
2024-02-12T20:55:49.296Z,993.851
2024-02-12T21:00:49.069Z,993.957
2024-02-12T21:05:52.305Z,993.797
2024-02-12T21:10:50.631Z,993.938
2024-02-12T21:15:46.877Z,993.829
2024-02-12T21:20:46.764Z,994.022
2024-02-12T21:25:47.685Z,994.048
2024-02-12T21:30:46.417Z,994.098
2024-02-12T21:35:45.546Z,994.058
2024-02-12T21:40:50.156Z,994.106
2024-02-12T21:45:48.774Z,994.105
2024-02-12T21:50:54.938Z,994.206
2024-02-12T21:55:53.085Z,994.35
2024-02-12T22:00:54.135Z,994.241
2024-02-12T22:05:54.646Z,994.282
2024-02-12T22:10:53.723Z,994.195
2024-02-12T22:15:49.558Z,994.362
2024-02-12T22:20:54.139Z,994.483
2024-02-12T22:25:53.025Z,994.574
2024-02-12T22:30:54.078Z,994.656
2024-02-12T22:35:47.148Z,994.616
2024-02-12T22:40:52.113Z,994.696
2024-02-12T22:45:48.901Z,994.817
2024-02-12T22:50:50.101Z,994.774
2024-02-12T22:55:47.979Z,994.803
2024-02-12T23:01:08.188Z,994.824
2024-02-12T23:05:53.143Z,994.741
2024-02-12T23:10:46.405Z,994.903
2024-02-12T23:15:48.844Z,994.867
2024-02-12T23:20:49.740Z,994.845
2024-02-12T23:25:52.126Z,995.019
2024-02-12T23:30:47.580Z,995.074
2024-02-12T23:35:45.843Z,995.01
2024-02-12T23:40:47.138Z,995.072
2024-02-12T23:45:49.668Z,995.044
2024-02-12T23:50:47.655Z,995.159
2024-02-12T23:55:45.591Z,995.177
